Soledad, California
Current Conditions -  °F | °C
As of 3:53 AM on Monday 22 Dec 2014 (Local Time) from KSNS Reporting Station
Moderate Fog Moderate Fog  
Wind Chill: 56°   Ceiling: 100
Heat Index: 56°   Visibility: 0.25mi
Dew Point: 53°   Wind: 8mph
Humidity: 90%   Direction: 250°WSW
Pressure: 30.24"   Gusts: NA
Location:  36.43°N, 121.32°W
Report Text: KSNS 221153Z AUTO 25007KT 1/4SM FG VV001 13/12 A3024 RMK AO2 SLP250 T01330117 10167 20133 56006 RVRNO
Loading
Personal Weather Stations






























Interactive Weather Map New forecast layout! Learn more

10-Day Weather Forecast

Advertisements
Track Severe Weather on mobile